createdAt,value
2019-04-11T00:00:41.807Z,54.09
2019-04-11T00:01:48.013Z,54.09
2019-04-11T00:02:42.508Z,54.61
2019-04-11T00:03:41.794Z,54.61
2019-04-11T00:04:42.035Z,55.22
2019-04-11T00:05:41.482Z,54.61
2019-04-11T00:06:41.490Z,54.82
2019-04-11T00:07:42.546Z,54.82
2019-04-11T00:08:41.937Z,54.30
2019-04-11T00:09:41.434Z,54.82
2019-04-11T00:10:41.693Z,55.54
2019-04-11T00:11:41.966Z,56.05
2019-04-11T00:12:41.399Z,55.33
2019-04-11T00:13:41.383Z,56.26
2019-04-11T00:14:42.158Z,56.57
2019-04-11T00:15:42.453Z,56.77
2019-04-11T00:16:41.567Z,56.77
2019-04-11T00:17:41.824Z,56.26
2019-04-11T00:18:41.334Z,56.88
2019-04-11T00:19:41.316Z,56.85
2019-04-11T00:20:42.413Z,56.88
2019-04-11T00:21:41.393Z,56.57
2019-04-11T00:22:41.563Z,57.92
2019-04-11T00:23:41.273Z,57.71
2019-04-11T00:24:41.264Z,57.53
2019-04-11T00:25:42.058Z,57.22
2019-04-11T00:26:41.329Z,57.73
2019-04-11T00:27:41.357Z,57.63
2019-04-11T00:28:41.679Z,57.42
2019-04-11T00:29:41.206Z,57.42
2019-04-11T00:30:42.183Z,57.12
2019-04-11T00:31:41.200Z,58.25
2019-04-11T00:32:41.475Z,57.76
2019-04-11T00:33:42.404Z,57.94
2019-04-11T00:34:41.152Z,57.63
2019-04-11T00:35:41.949Z,57.32
2019-04-11T00:36:41.135Z,57.66
2019-04-11T00:37:41.288Z,58.38
2019-04-11T00:38:42.266Z,58.90
2019-04-11T00:39:41.107Z,58.69
2019-04-11T00:40:41.652Z,58.80
2019-04-11T00:41:41.895Z,58.80
2019-04-11T00:42:41.118Z,58.90
2019-04-11T00:43:43.446Z,58.90
2019-04-11T00:44:41.195Z,59.11
2019-04-11T00:45:41.032Z,58.38
2019-04-11T00:46:41.029Z,58.59
2019-04-11T00:47:41.544Z,58.51
2019-04-11T00:48:41.931Z,58.83
2019-04-11T00:49:42.949Z,59.14
2019-04-11T00:50:40.982Z,59.24
2019-04-11T00:51:42.247Z,59.06
2019-04-11T00:52:41.295Z,59.66
2019-04-11T00:53:40.949Z,59.86
2019-04-11T00:54:40.941Z,59.47
2019-04-11T00:55:41.864Z,59.68
2019-04-11T00:56:42.187Z,59.75
2019-04-11T00:57:41.232Z,59.47
2019-04-11T00:58:41.530Z,59.37
2019-04-11T00:59:40.878Z,60.06
2019-04-11T01:00:40.881Z,59.27
2019-04-11T01:01:40.971Z,59.16
2019-04-11T01:02:42.267Z,59.99
2019-04-11T01:03:40.835Z,60.41
2019-04-11T01:04:41.235Z,60.41
2019-04-11T01:05:41.536Z,60.30
2019-04-11T01:06:40.810Z,60.41
2019-04-11T01:07:40.966Z,60.61
2019-04-11T01:08:41.882Z,60.10
2019-04-11T01:09:40.796Z,60.10
2019-04-11T01:10:41.520Z,60.10
2019-04-11T01:11:40.749Z,60.61
2019-04-11T01:12:40.881Z,60.41
2019-04-11T01:13:48.610Z,60.61
2019-04-11T01:14:42.688Z,60.30
2019-04-11T01:15:40.882Z,60.30
2019-04-11T01:16:41.012Z,60.41
2019-04-11T01:17:41.339Z,60.82
2019-04-11T01:18:40.673Z,61.55
2019-04-11T01:19:40.798Z,61.03
2019-04-11T01:20:41.816Z,60.30
2019-04-11T01:21:40.639Z,60.41
2019-04-11T01:22:40.669Z,61.34
2019-04-11T01:23:40.702Z,61.13
2019-04-11T01:24:41.950Z,60.95
2019-04-11T01:25:41.036Z,60.93
2019-04-11T01:26:41.353Z,60.93
2019-04-11T01:27:41.186Z,60.93
2019-04-11T01:28:40.777Z,61.03
2019-04-11T01:29:41.813Z,60.93
2019-04-11T01:30:40.922Z,60.93
2019-04-11T01:31:40.548Z,60.95
2019-04-11T01:32:40.520Z,60.93
2019-04-11T01:33:42.117Z,60.95
2019-04-11T01:34:40.555Z,61.78
2019-04-11T01:35:41.604Z,61.57
2019-04-11T01:36:40.485Z,61.88
2019-04-11T01:37:40.476Z,61.99
2019-04-11T01:38:40.886Z,62.64
2019-04-11T01:39:41.217Z,62.43
2019-04-11T01:40:40.433Z,62.09
2019-04-11T01:41:40.532Z,62.19
2019-04-11T01:42:41.665Z,62.74
2019-04-11T01:43:52.075Z,62.12
2019-04-11T01:44:41.499Z,62.09
2019-04-11T01:45:41.328Z,62.40
2019-04-11T01:46:40.366Z,62.43
2019-04-11T01:47:40.355Z,62.85
2019-04-11T01:48:40.355Z,62.74
2019-04-11T01:49:40.659Z,62.95
2019-04-11T01:50:41.182Z,63.16
2019-04-11T01:51:40.317Z,63.57
2019-04-11T01:52:40.351Z,62.74
2019-04-11T01:53:41.015Z,63.26
2019-04-11T01:54:40.283Z,63.57
2019-04-11T01:55:40.837Z,63.99
2019-04-11T01:56:41.150Z,63.99
2019-04-11T01:57:40.340Z,63.68
2019-04-11T01:58:40.638Z,63.68
2019-04-11T01:59:40.224Z,63.71
2019-04-11T02:00:40.220Z,63.81
2019-04-11T02:01:41.066Z,64.43
2019-04-11T02:02:40.203Z,64.64
2019-04-11T02:03:41.363Z,65.06
2019-04-11T02:04:40.467Z,64.95
2019-04-11T02:05:41.130Z,64.95
2019-04-11T02:06:40.385Z,65.06
2019-04-11T02:07:40.133Z,64.54
2019-04-11T02:08:40.127Z,65.06
2019-04-11T02:09:40.180Z,65.26
2019-04-11T02:10:41.129Z,65.16
2019-04-11T02:11:40.451Z,65.06
2019-04-11T02:12:40.081Z,64.95
2019-04-11T02:13:40.069Z,64.75
2019-04-11T02:14:40.067Z,64.64
2019-04-11T02:15:40.820Z,65.06
2019-04-11T02:16:41.131Z,64.95
2019-04-11T02:17:41.115Z,65.37
2019-04-11T02:18:40.015Z,64.85
2019-04-11T02:19:40.521Z,64.85
2019-04-11T02:20:40.948Z,65.47
2019-04-11T02:21:42.046Z,65.06
2019-04-11T02:22:40.395Z,64.95
2019-04-11T02:23:39.965Z,65.06
2019-04-11T02:24:40.007Z,64.95
2019-04-11T02:25:41.258Z,65.16
2019-04-11T02:26:41.025Z,65.26
2019-04-11T02:27:40.156Z,65.19
2019-04-11T02:28:40.981Z,65.19
2019-04-11T02:29:39.959Z,65.39
2019-04-11T02:30:41.923Z,65.08
2019-04-11T02:31:39.881Z,65.19
2019-04-11T02:32:40.417Z,65.19
2019-04-11T02:33:41.369Z,65.08
2019-04-11T02:34:40.292Z,65.26
2019-04-11T02:35:42.208Z,65.39
2019-04-11T02:36:40.509Z,65.37
2019-04-11T02:37:40.000Z,65.47
2019-04-11T02:38:41.258Z,65.39
2019-04-11T02:39:40.955Z,65.70
2019-04-11T02:40:41.098Z,65.19
2019-04-11T02:41:40.073Z,65.39
2019-04-11T02:42:41.061Z,65.37
2019-04-11T02:43:41.804Z,65.50
2019-04-11T02:44:56.058Z,65.06
2019-04-11T02:45:54.531Z,65.08
2019-04-11T02:46:44.891Z,65.19
2019-04-11T02:47:43.938Z,65.08
2019-04-11T02:48:42.487Z,65.50
2019-04-11T02:49:41.138Z,64.87
2019-04-11T02:50:41.480Z,65.50
2019-04-11T02:51:39.655Z,65.70
2019-04-11T02:52:40.145Z,64.98
2019-04-11T02:53:40.933Z,65.39
2019-04-11T02:54:40.959Z,64.67
2019-04-11T02:55:41.439Z,65.08
2019-04-11T02:56:40.657Z,64.87
2019-04-11T02:57:40.820Z,64.36
2019-04-11T02:58:40.086Z,65.08
2019-04-11T02:59:40.968Z,64.87
2019-04-11T03:00:40.289Z,64.56
2019-04-11T03:01:39.973Z,64.36
2019-04-11T03:02:41.649Z,64.36
2019-04-11T03:03:41.702Z,64.46
2019-04-11T03:04:41.521Z,63.73
2019-04-11T03:05:39.662Z,64.80
2019-04-11T03:06:39.882Z,64.56
2019-04-11T03:07:40.106Z,64.77
2019-04-11T03:08:41.017Z,64.67
2019-04-11T03:09:39.516Z,64.46
2019-04-11T03:10:40.918Z,64.36
2019-04-11T03:11:40.857Z,63.84
2019-04-11T03:12:40.517Z,64.04
2019-04-11T03:13:39.579Z,64.49
2019-04-11T03:15:01.047Z,63.84
2019-04-11T03:15:56.954Z,64.59
2019-04-11T03:16:51.882Z,64.56
2019-04-11T03:17:43.313Z,64.25
2019-04-11T03:19:02.414Z,64.87
2019-04-11T03:19:54.731Z,64.15
2019-04-11T03:20:47.803Z,64.98
2019-04-11T03:21:43.677Z,64.36
2019-04-11T03:22:40.527Z,64.15
2019-04-11T03:23:40.133Z,64.46
2019-04-11T03:24:40.624Z,64.67
2019-04-11T03:25:40.585Z,63.94
2019-04-11T03:26:41.135Z,63.42
2019-04-11T03:27:40.824Z,64.04
2019-04-11T03:28:42.473Z,63.94
2019-04-11T03:29:40.809Z,63.53
2019-04-11T03:30:59.181Z,63.94
2019-04-11T03:32:24.690Z,64.04
2019-04-11T03:34:24.981Z,63.94
2019-04-11T03:37:58.703Z,63.94
2019-04-11T03:39:00.228Z,63.76
2019-04-11T03:39:59.606Z,63.76
2019-04-11T03:40:57.686Z,63.76
2019-04-11T03:41:57.665Z,63.94
2019-04-11T03:42:57.050Z,63.56
2019-04-11T03:43:51.046Z,64.04
2019-04-11T03:44:46.292Z,64.46
2019-04-11T03:45:58.979Z,64.70
2019-04-11T03:46:52.776Z,64.90
2019-04-11T03:47:59.477Z,63.87
2019-04-11T03:48:50.747Z,64.15
2019-04-11T03:49:49.089Z,64.70
2019-04-11T03:50:40.281Z,64.28
2019-04-11T03:51:40.925Z,64.90
2019-04-11T03:52:38.983Z,65.32
2019-04-11T03:53:38.973Z,65.11
2019-04-11T03:54:41.013Z,65.73
2019-04-11T03:55:39.136Z,65.32
2019-04-11T03:56:39.076Z,65.73
2019-04-11T03:57:39.470Z,65.53
2019-04-11T03:58:39.865Z,65.94
2019-04-11T03:59:40.563Z,65.42
2019-04-11T04:00:43.208Z,65.94
2019-04-11T04:01:39.976Z,65.84
2019-04-11T04:02:39.167Z,66.15
2019-04-11T04:03:39.351Z,66.05
2019-04-11T04:04:39.342Z,66.28
2019-04-11T04:05:39.721Z,66.18
2019-04-11T04:06:39.448Z,66.60
2019-04-11T04:07:40.291Z,66.60
2019-04-11T04:08:39.269Z,67.22
2019-04-11T04:09:39.745Z,67.02
2019-04-11T04:10:39.525Z,67.46
2019-04-11T04:11:40.736Z,67.12
2019-04-11T04:12:40.254Z,67.22
2019-04-11T04:13:39.176Z,67.22
2019-04-11T04:14:39.142Z,67.12
2019-04-11T04:15:51.625Z,67.43
2019-04-11T04:16:45.633Z,68.08
2019-04-11T04:17:41.189Z,67.67
2019-04-11T04:18:40.197Z,67.98
2019-04-11T04:19:40.137Z,67.46
2019-04-11T04:20:39.422Z,67.95
2019-04-11T04:21:38.910Z,67.67
2019-04-11T04:22:39.712Z,67.67
2019-04-11T04:23:38.640Z,67.74
2019-04-11T04:24:40.525Z,67.95
2019-04-11T04:25:39.226Z,67.85
2019-04-11T04:26:39.098Z,67.85
2019-04-11T04:27:38.885Z,67.54
2019-04-11T04:28:40.675Z,68.08
2019-04-11T04:29:38.742Z,68.05
2019-04-11T04:30:40.554Z,67.54
2019-04-11T04:31:39.069Z,68.05
2019-04-11T04:32:38.777Z,67.46
2019-04-11T04:33:40.046Z,68.57
2019-04-11T04:34:40.222Z,68.29
2019-04-11T04:35:40.142Z,68.29
2019-04-11T04:36:40.189Z,67.95
2019-04-11T04:37:38.859Z,68.16
2019-04-11T04:38:39.562Z,68.37
2019-04-11T04:39:39.657Z,67.98
2019-04-11T04:40:51.033Z,68.60
2019-04-11T04:41:47.875Z,68.71
2019-04-11T04:42:46.089Z,68.71
2019-04-11T04:43:41.146Z,69.02
2019-04-11T04:44:40.217Z,68.91
2019-04-11T04:45:58.147Z,68.71
2019-04-11T04:46:57.147Z,69.43
2019-04-11T04:47:47.087Z,69.23
2019-04-11T04:48:41.028Z,69.33
2019-04-11T04:49:39.275Z,69.12
2019-04-11T04:50:39.327Z,69.12
2019-04-11T04:51:39.126Z,69.26
2019-04-11T04:52:38.439Z,70.06
2019-04-11T04:53:39.063Z,69.12
2019-04-11T04:54:38.710Z,68.81
2019-04-11T04:55:38.800Z,69.74
2019-04-11T04:56:39.790Z,69.54
2019-04-11T04:57:38.274Z,69.78
2019-04-11T04:58:39.833Z,69.96
2019-04-11T04:59:40.605Z,68.91
2019-04-11T05:00:39.709Z,70.06
2019-04-11T05:01:39.282Z,70.37
2019-04-11T05:02:39.791Z,70.37
2019-04-11T05:03:38.210Z,70.40
2019-04-11T05:04:38.770Z,70.37
2019-04-11T05:05:38.829Z,70.17
2019-04-11T05:06:38.729Z,69.96
2019-04-11T05:07:40.428Z,70.06
2019-04-11T05:08:39.026Z,70.68
2019-04-11T05:09:38.412Z,70.17
2019-04-11T05:10:38.255Z,70.48
2019-04-11T05:11:38.339Z,70.27
2019-04-11T05:12:38.841Z,70.17
2019-04-11T05:13:38.789Z,70.27
2019-04-11T05:14:39.347Z,70.27
2019-04-11T05:15:38.670Z,70.48
2019-04-11T05:16:38.059Z,70.72
2019-04-11T05:17:38.701Z,70.37
2019-04-11T05:18:38.039Z,70.37
2019-04-11T05:19:38.355Z,70.58
2019-04-11T05:20:38.605Z,70.68
2019-04-11T05:21:38.203Z,70.37
2019-04-11T05:22:38.060Z,71.10
2019-04-11T05:23:37.984Z,70.48
2019-04-11T05:24:38.910Z,70.58
2019-04-11T05:25:39.035Z,70.27
2019-04-11T05:26:37.959Z,70.54
2019-04-11T05:27:38.028Z,69.92
2019-04-11T05:28:37.929Z,70.44
2019-04-11T05:29:37.919Z,70.23
2019-04-11T05:30:37.912Z,70.13
2019-04-11T05:31:38.694Z,70.13
2019-04-11T05:32:37.889Z,70.03
2019-04-11T05:33:39.097Z,69.30
2019-04-11T05:34:37.866Z,68.88
2019-04-11T05:35:37.852Z,69.30
2019-04-11T05:36:38.715Z,68.88
2019-04-11T05:37:37.924Z,69.09
2019-04-11T05:38:38.019Z,69.51
2019-04-11T05:39:38.124Z,68.99
2019-04-11T05:40:37.814Z,69.51
2019-04-11T05:41:37.785Z,69.02
2019-04-11T05:42:37.778Z,68.99
2019-04-11T05:43:39.784Z,68.88
2019-04-11T05:44:40.226Z,69.30
2019-04-11T05:45:38.104Z,69.51
2019-04-11T05:46:49.109Z,69.51
2019-04-11T05:47:39.325Z,69.09
2019-04-11T05:48:38.938Z,69.51
2019-04-11T05:49:40.834Z,69.09
2019-04-11T05:50:37.687Z,69.48
2019-04-11T05:51:41.641Z,69.17
2019-04-11T05:52:39.892Z,69.51
2019-04-11T05:53:38.678Z,68.65
2019-04-11T05:54:41.209Z,68.44
2019-04-11T05:55:41.433Z,68.02
2019-04-11T05:56:37.653Z,68.44
2019-04-11T05:57:38.866Z,68.33
2019-04-11T05:58:42.177Z,68.33
2019-04-11T05:59:39.065Z,68.02
2019-04-11T06:00:38.051Z,68.33
2019-04-11T06:01:38.332Z,69.06
2019-04-11T06:02:37.557Z,68.23
2019-04-11T06:03:39.978Z,68.13
2019-04-11T06:04:37.537Z,68.23
2019-04-11T06:05:39.087Z,68.23
2019-04-11T06:06:40.256Z,68.13
2019-04-11T06:07:42.500Z,68.20
2019-04-11T06:08:38.489Z,68.13
2019-04-11T06:09:39.847Z,68.10
2019-04-11T06:10:42.659Z,67.99
2019-04-11T06:11:39.096Z,68.33
2019-04-11T06:12:37.953Z,67.99
2019-04-11T06:13:37.441Z,68.02
2019-04-11T06:14:37.581Z,67.37
2019-04-11T06:15:40.827Z,68.41
2019-04-11T06:16:43.599Z,67.68
2019-04-11T06:17:38.556Z,67.44
2019-04-11T06:18:40.808Z,66.61
2019-04-11T06:19:39.499Z,67.61
2019-04-11T06:20:37.987Z,67.79
2019-04-11T06:21:37.355Z,67.03
2019-04-11T06:22:38.091Z,65.59
2019-04-11T06:23:37.328Z,63.69
2019-04-11T06:24:38.438Z,63.59
2019-04-11T06:25:40.268Z,64.00
2019-04-11T06:26:38.685Z,64.00
2019-04-11T06:27:38.979Z,63.59
2019-04-11T06:28:38.075Z,62.66
2019-04-11T06:29:37.266Z,62.84
2019-04-11T06:30:37.259Z,62.29
2019-04-11T06:31:38.152Z,61.46
2019-04-11T06:32:38.305Z,62.91
2019-04-11T06:33:37.476Z,61.74
2019-04-11T06:34:37.602Z,61.02
2019-04-11T06:35:37.851Z,61.30
2019-04-11T06:36:37.182Z,60.06
2019-04-11T06:37:38.117Z,58.89
2019-04-11T06:38:37.217Z,60.03
2019-04-11T06:39:37.806Z,60.31
2019-04-11T06:40:37.232Z,60.08
2019-04-11T06:41:37.139Z,58.30
2019-04-11T06:42:37.301Z,57.60
2019-04-11T06:43:38.329Z,56.75
2019-04-11T06:44:37.683Z,55.51
2019-04-11T06:45:37.729Z,56.59
2019-04-11T06:46:48.590Z,56.08
2019-04-11T06:47:38.084Z,54.92
2019-04-11T06:48:38.099Z,54.51
2019-04-11T06:49:37.037Z,53.66
2019-04-11T06:50:37.609Z,52.91
2019-04-11T06:51:37.797Z,53.30
2019-04-11T06:52:37.039Z,52.69
2019-04-11T06:53:37.094Z,51.84
2019-04-11T06:54:37.183Z,51.71
2019-04-11T06:55:37.125Z,50.48
2019-04-11T06:56:36.993Z,49.55
2019-04-11T06:57:38.217Z,49.76
2019-04-11T06:58:37.330Z,49.24
2019-04-11T06:59:37.018Z,49.55
2019-04-11T07:00:36.988Z,48.50
2019-04-11T07:01:38.355Z,48.91
2019-04-11T07:02:36.974Z,48.89
2019-04-11T07:03:36.924Z,48.99
2019-04-11T07:04:37.766Z,48.46
2019-04-11T07:05:36.964Z,47.20
2019-04-11T07:06:37.760Z,48.22
2019-04-11T07:07:37.814Z,46.46
2019-04-11T07:08:36.834Z,45.83
2019-04-11T07:09:37.499Z,45.29
2019-04-11T07:10:36.809Z,44.78
2019-04-11T07:11:36.804Z,45.10
2019-04-11T07:12:36.790Z,45.72
2019-04-11T07:13:37.164Z,44.49
2019-04-11T07:14:37.556Z,44.90
2019-04-11T07:15:37.679Z,44.17
2019-04-11T07:16:36.745Z,43.43
2019-04-11T07:17:37.505Z,43.63
2019-04-11T07:18:37.827Z,42.61
2019-04-11T07:19:37.282Z,42.73
2019-04-11T07:20:37.871Z,42.42
2019-04-11T07:21:36.692Z,42.63
2019-04-11T07:22:36.903Z,41.58
2019-04-11T07:23:36.667Z,42.19
2019-04-11T07:24:36.836Z,41.56
2019-04-11T07:25:37.428Z,41.25
2019-04-11T07:26:37.602Z,41.25
2019-04-11T07:27:36.713Z,42.07
2019-04-11T07:28:36.614Z,41.77
2019-04-11T07:29:37.832Z,41.87
2019-04-11T07:30:37.451Z,40.93
2019-04-11T07:31:38.018Z,40.70
2019-04-11T07:32:36.661Z,39.78
2019-04-11T07:33:37.290Z,38.86
2019-04-11T07:34:38.776Z,39.17
2019-04-11T07:35:37.935Z,38.96
2019-04-11T07:36:36.529Z,38.75
2019-04-11T07:37:37.206Z,38.62
2019-04-11T07:38:36.687Z,36.56
2019-04-11T07:39:37.906Z,36.87
2019-04-11T07:40:36.600Z,36.75
2019-04-11T07:41:38.760Z,36.79
2019-04-11T07:42:37.366Z,38.30
2019-04-11T07:43:36.534Z,37.48
2019-04-11T07:44:36.433Z,37.70
2019-04-11T07:45:38.788Z,37.70
2019-04-11T07:46:36.414Z,37.50
2019-04-11T07:47:37.258Z,35.64
2019-04-11T07:48:36.402Z,36.36
2019-04-11T07:49:37.225Z,36.56
2019-04-11T07:50:36.499Z,36.56
2019-04-11T07:51:36.602Z,35.63
2019-04-11T07:52:36.357Z,35.05
2019-04-11T07:53:37.292Z,34.72
2019-04-11T07:54:36.942Z,34.93
2019-04-11T07:55:36.576Z,34.74
2019-04-11T07:56:37.568Z,35.15
2019-04-11T07:57:36.292Z,35.05
2019-04-11T07:58:37.327Z,35.76
2019-04-11T07:59:37.541Z,36.83
2019-04-11T08:00:43.468Z,37.26
2019-04-11T08:01:38.244Z,38.40
2019-04-11T08:02:37.602Z,38.61
2019-04-11T08:03:36.230Z,38.82
2019-04-11T08:04:36.494Z,39.12
2019-04-11T08:05:36.680Z,39.25
2019-04-11T08:06:37.059Z,37.90
2019-04-11T08:07:36.191Z,38.63
2019-04-11T08:08:36.797Z,38.61
2019-04-11T08:09:36.182Z,38.40
2019-04-11T08:10:37.212Z,38.59
2019-04-11T08:11:36.144Z,38.49
2019-04-11T08:12:37.252Z,38.37
2019-04-11T08:13:36.804Z,37.41
2019-04-11T08:14:36.953Z,37.23
2019-04-11T08:15:36.173Z,35.99
2019-04-11T08:16:37.089Z,36.31
2019-04-11T08:17:40.436Z,36.08
2019-04-11T08:18:37.067Z,36.94
2019-04-11T08:19:36.086Z,37.86
2019-04-11T08:20:36.064Z,37.63
2019-04-11T08:21:37.178Z,37.01
2019-04-11T08:22:36.077Z,36.49
2019-04-11T08:23:36.105Z,35.80
2019-04-11T08:24:36.578Z,36.63
2019-04-11T08:25:36.051Z,37.69
2019-04-11T08:26:35.990Z,38.42
2019-04-11T08:27:48.428Z,38.15
2019-04-11T08:28:37.355Z,39.81
2019-04-11T08:29:36.082Z,41.60
2019-04-11T08:30:37.034Z,42.33
2019-04-11T08:31:36.213Z,42.13
2019-04-11T08:32:36.116Z,41.58
2019-04-11T08:33:35.914Z,40.31
2019-04-11T08:34:35.889Z,39.25
2019-04-11T08:35:36.588Z,39.14
2019-04-11T08:36:35.867Z,39.59
2019-04-11T08:37:35.919Z,39.40
2019-04-11T08:38:36.390Z,39.81
2019-04-11T08:39:35.834Z,39.30
2019-04-11T08:40:35.835Z,38.85
2019-04-11T08:41:35.930Z,37.30
2019-04-11T08:42:37.352Z,37.60
2019-04-11T08:43:35.792Z,36.89
2019-04-11T08:44:36.536Z,35.42
2019-04-11T08:45:35.780Z,35.63
2019-04-11T08:46:37.155Z,35.44
2019-04-11T08:47:43.856Z,35.74
2019-04-11T08:48:37.230Z,35.01
2019-04-11T08:49:35.736Z,35.85
2019-04-11T08:50:36.658Z,35.72
2019-04-11T08:51:35.777Z,35.11
2019-04-11T08:52:36.142Z,35.74
2019-04-11T08:53:35.705Z,35.85
2019-04-11T08:54:35.664Z,35.95
2019-04-11T08:55:47.649Z,37.09
2019-04-11T08:56:36.855Z,37.84
2019-04-11T08:57:36.102Z,38.58
2019-04-11T08:58:36.396Z,38.70
2019-04-11T08:59:35.954Z,38.70
2019-04-11T09:00:35.613Z,39.13
2019-04-11T09:01:36.022Z,39.25
2019-04-11T09:02:35.582Z,39.04
2019-04-11T09:03:35.705Z,39.76
2019-04-11T09:04:36.547Z,39.27
2019-04-11T09:05:35.583Z,39.58
2019-04-11T09:06:36.887Z,38.06
2019-04-11T09:07:36.005Z,37.74
2019-04-11T09:08:35.524Z,37.13
2019-04-11T09:09:37.695Z,37.02
2019-04-11T09:10:35.886Z,37.34
2019-04-11T09:11:38.632Z,37.25
2019-04-11T09:12:36.400Z,37.87
2019-04-11T09:13:35.635Z,37.97
2019-04-11T09:14:35.986Z,37.54
2019-04-11T09:15:35.463Z,36.49
2019-04-11T09:16:35.426Z,34.94
2019-04-11T09:17:36.552Z,34.80
2019-04-11T09:18:36.474Z,33.87
2019-04-11T09:19:35.406Z,34.41
2019-04-11T09:20:35.944Z,34.00
2019-04-11T09:21:36.218Z,34.94
2019-04-11T09:22:35.434Z,33.91
2019-04-11T09:23:35.695Z,34.71
2019-04-11T09:24:35.357Z,32.63
2019-04-11T09:25:35.349Z,31.98
2019-04-11T09:26:36.077Z,31.87
2019-04-11T09:27:36.469Z,31.44
2019-04-11T09:28:35.677Z,31.21
2019-04-11T09:29:35.283Z,30.58
2019-04-11T09:30:35.293Z,30.55
2019-04-11T09:31:35.863Z,30.47
2019-04-11T09:32:36.185Z,31.10
2019-04-11T09:33:35.289Z,31.02
2019-04-11T09:34:35.659Z,31.29
2019-04-11T09:35:35.367Z,30.99
2019-04-11T09:36:35.212Z,31.41
2019-04-11T09:37:35.999Z,32.36
2019-04-11T09:38:35.192Z,31.76
2019-04-11T09:39:35.189Z,33.31
2019-04-11T09:40:36.208Z,33.62
2019-04-11T09:41:36.528Z,33.54
2019-04-11T09:42:35.141Z,33.96
2019-04-11T09:43:35.884Z,34.90
2019-04-11T09:44:35.122Z,35.52
2019-04-11T09:45:35.396Z,35.33
2019-04-11T09:46:35.111Z,34.92
2019-04-11T09:47:36.229Z,36.05
2019-04-11T09:48:35.092Z,35.74
2019-04-11T09:49:36.101Z,35.13
2019-04-11T09:50:36.364Z,35.64
2019-04-11T09:51:35.998Z,35.33
2019-04-11T09:52:35.093Z,35.02
2019-04-11T09:53:35.021Z,35.13
2019-04-11T09:54:35.175Z,34.81
2019-04-11T09:55:35.006Z,35.11
2019-04-11T09:56:36.255Z,35.02
2019-04-11T09:57:34.977Z,35.85
2019-04-11T09:58:35.742Z,35.11
2019-04-11T09:59:34.957Z,34.49
2019-04-11T10:00:34.954Z,34.19
2019-04-11T10:01:35.172Z,33.98
2019-04-11T10:02:35.326Z,33.76
2019-04-11T10:03:34.911Z,33.14
2019-04-11T10:04:36.051Z,32.75
2019-04-11T10:05:35.147Z,33.14
2019-04-11T10:06:34.876Z,33.45
2019-04-11T10:07:35.564Z,33.45
2019-04-11T10:08:35.164Z,32.92
2019-04-11T10:09:35.746Z,33.12
2019-04-11T10:10:35.285Z,32.92
2019-04-11T10:11:34.825Z,32.92
2019-04-11T10:12:36.033Z,33.23
2019-04-11T10:13:35.589Z,32.39
2019-04-11T10:14:34.811Z,32.39
2019-04-11T10:15:35.569Z,32.20
2019-04-11T10:16:35.834Z,31.78
2019-04-11T10:17:35.932Z,31.57
2019-04-11T10:18:38.720Z,33.23
2019-04-11T10:19:36.063Z,33.54
2019-04-11T10:20:35.027Z,33.47
2019-04-11T10:21:34.720Z,34.80
2019-04-11T10:22:34.715Z,33.89
2019-04-11T10:23:34.694Z,35.31
2019-04-11T10:24:34.735Z,34.39
2019-04-11T10:25:35.166Z,34.52
2019-04-11T10:26:34.730Z,34.11
2019-04-11T10:27:34.653Z,34.32
2019-04-11T10:28:35.541Z,34.22
2019-04-11T10:29:34.693Z,35.16
2019-04-11T10:30:34.677Z,34.94
2019-04-11T10:31:34.759Z,34.75
2019-04-11T10:32:35.063Z,35.36
2019-04-11T10:33:35.178Z,34.64
2019-04-11T10:34:35.412Z,34.95
2019-04-11T10:35:34.608Z,35.26
2019-04-11T10:36:34.944Z,35.16
2019-04-11T10:37:34.549Z,35.16
2019-04-11T10:38:34.576Z,34.85
2019-04-11T10:39:35.575Z,35.05
2019-04-11T10:40:34.528Z,35.47
2019-04-11T10:41:34.555Z,35.26
2019-04-11T10:42:34.971Z,35.47
2019-04-11T10:43:34.493Z,35.88
2019-04-11T10:44:34.480Z,35.77
2019-04-11T10:45:34.491Z,35.57
2019-04-11T10:46:35.428Z,35.89
2019-04-11T10:47:34.489Z,35.16
2019-04-11T10:48:39.448Z,36.19
2019-04-11T10:49:36.516Z,36.29
2019-04-11T10:50:34.411Z,36.29
2019-04-11T10:51:34.434Z,35.77
2019-04-11T10:52:34.381Z,36.39
2019-04-11T10:53:35.376Z,36.39
2019-04-11T10:54:34.364Z,36.37
2019-04-11T10:55:34.369Z,35.98
2019-04-11T10:56:34.760Z,36.39
2019-04-11T10:57:34.406Z,35.26
2019-04-11T10:58:35.155Z,36.19
2019-04-11T10:59:34.530Z,36.49
2019-04-11T11:00:35.505Z,36.41
2019-04-11T11:01:34.283Z,36.10
2019-04-11T11:02:35.730Z,35.47
2019-04-11T11:03:34.261Z,36.20
2019-04-11T11:04:35.063Z,35.28
2019-04-11T11:05:34.634Z,35.38
2019-04-11T11:06:35.845Z,35.60
2019-04-11T11:07:34.983Z,36.22
2019-04-11T11:08:34.339Z,36.53
2019-04-11T11:09:35.485Z,36.63
2019-04-11T11:10:35.451Z,36.43
2019-04-11T11:11:34.537Z,35.58
2019-04-11T11:12:35.144Z,35.98
2019-04-11T11:13:34.207Z,36.47
2019-04-11T11:14:34.533Z,35.86
2019-04-11T11:15:34.192Z,35.66
2019-04-11T11:16:34.293Z,35.13
2019-04-11T11:17:54.566Z,34.63
2019-04-11T11:18:53.807Z,33.70
2019-04-11T11:20:39.927Z,34.63
2019-04-11T11:21:35.622Z,34.11
2019-04-11T11:22:34.609Z,33.60
2019-04-11T11:23:35.173Z,33.72
2019-04-11T11:24:38.240Z,33.92
2019-04-11T11:25:35.133Z,34.44
2019-04-11T11:26:34.026Z,34.23
2019-04-11T11:27:34.763Z,34.33
2019-04-11T11:28:34.343Z,35.48
2019-04-11T11:29:35.014Z,35.28
2019-04-11T11:30:35.287Z,35.69
2019-04-11T11:31:34.129Z,35.79
2019-04-11T11:32:33.945Z,35.38
2019-04-11T11:33:34.131Z,36.49
2019-04-11T11:34:34.729Z,35.69
2019-04-11T11:35:37.277Z,35.89
2019-04-11T11:36:37.730Z,36.39
2019-04-11T11:37:33.882Z,35.47
2019-04-11T11:38:33.866Z,36.39
2019-04-11T11:39:33.863Z,36.49
2019-04-11T11:40:38.550Z,36.39
2019-04-11T11:41:34.838Z,36.19
2019-04-11T11:42:34.478Z,36.60
2019-04-11T11:43:34.950Z,37.11
2019-04-11T11:44:34.938Z,37.01
2019-04-11T11:45:33.851Z,36.80
2019-04-11T11:46:34.529Z,37.42
2019-04-11T11:47:38.029Z,37.11
2019-04-11T11:48:35.680Z,37.85
2019-04-11T11:49:45.796Z,37.55
2019-04-11T11:50:36.040Z,38.69
2019-04-11T11:51:33.719Z,38.59
2019-04-11T11:52:35.045Z,38.79
2019-04-11T11:53:33.727Z,38.48
2019-04-11T11:54:33.692Z,39.18
2019-04-11T11:55:33.737Z,38.79
2019-04-11T11:56:34.051Z,39.41
2019-04-11T11:57:33.665Z,40.23
2019-04-11T11:58:33.652Z,39.72
2019-04-11T11:59:34.458Z,40.03
2019-04-11T12:00:33.618Z,40.45
2019-04-11T12:01:33.668Z,40.97
2019-04-11T12:02:34.776Z,40.89
2019-04-11T12:03:33.596Z,41.61
2019-04-11T12:04:36.108Z,41.20
2019-04-11T12:05:34.754Z,41.61
2019-04-11T12:06:33.551Z,41.50
2019-04-11T12:07:36.687Z,41.61
2019-04-11T12:08:34.947Z,40.77
2019-04-11T12:09:34.249Z,40.68
2019-04-11T12:10:34.068Z,41.71
2019-04-11T12:11:34.444Z,41.09
2019-04-11T12:12:33.677Z,41.71
2019-04-11T12:13:34.578Z,41.30
2019-04-11T12:14:33.467Z,42.43
2019-04-11T12:15:33.464Z,41.71
2019-04-11T12:16:34.633Z,43.05
2019-04-11T12:17:36.986Z,42.74
2019-04-11T12:18:33.426Z,42.22
2019-04-11T12:19:45.750Z,41.89
2019-04-11T12:20:34.809Z,41.59
2019-04-11T12:21:34.560Z,41.16
2019-04-11T12:22:34.732Z,41.47
2019-04-11T12:23:46.447Z,41.35
2019-04-11T12:24:34.550Z,39.78
2019-04-11T12:25:33.476Z,39.87
2019-04-11T12:26:33.865Z,39.56
2019-04-11T12:27:33.349Z,41.00
2019-04-11T12:28:35.908Z,39.36
2019-04-11T12:29:34.332Z,39.37
2019-04-11T12:30:34.419Z,39.99
2019-04-11T12:31:36.423Z,39.99
2019-04-11T12:32:33.274Z,40.19
2019-04-11T12:33:33.267Z,39.48
2019-04-11T12:34:34.463Z,40.30
2019-04-11T12:35:33.245Z,40.09
2019-04-11T12:36:33.307Z,39.89
2019-04-11T12:37:33.674Z,39.48
2019-04-11T12:38:33.251Z,39.48
2019-04-11T12:39:33.191Z,39.78
2019-04-11T12:40:34.044Z,40.40
2019-04-11T12:41:33.239Z,39.56
2019-04-11T12:42:33.233Z,39.56
2019-04-11T12:43:33.153Z,39.97
2019-04-11T12:44:33.200Z,39.89
2019-04-11T12:45:33.134Z,39.25
2019-04-11T12:46:33.238Z,38.94
2019-04-11T12:47:33.109Z,39.25
2019-04-11T12:48:33.104Z,39.46
2019-04-11T12:49:33.102Z,38.84
2019-04-11T12:50:33.079Z,39.34
2019-04-11T12:51:34.384Z,38.84
2019-04-11T12:52:33.096Z,38.53
2019-04-11T12:53:33.034Z,38.32
2019-04-11T12:54:33.078Z,38.12
2019-04-11T12:55:33.020Z,38.53
2019-04-11T12:56:33.005Z,37.92
2019-04-11T12:57:33.011Z,38.94